createdAt,value
2017-12-12T00:12:47.043Z,95398.56
2017-12-12T00:23:06.122Z,95401.62
2017-12-12T00:25:53.003Z,95419.48
2017-12-12T00:28:26.604Z,95423.78
2017-12-12T00:31:03.435Z,95416.38
2017-12-12T00:33:51.582Z,95419.98
2017-12-12T00:36:32.761Z,95440.20
2017-12-12T00:39:19.795Z,95432.95
2017-12-12T00:41:54.085Z,95434.54
2017-12-12T00:44:24.065Z,95446.86
2017-12-12T00:46:56.222Z,95433.14
2017-12-12T00:49:27.744Z,95447.33
2017-12-12T00:51:59.254Z,95455.02
2017-12-12T00:54:32.166Z,95456.86
2017-12-12T00:57:04.828Z,95462.95
2017-12-12T00:59:42.334Z,95458.57
2017-12-12T01:02:13.212Z,95466.12
2017-12-12T01:04:47.526Z,95496.65
2017-12-12T01:07:18.052Z,95491.82
2017-12-12T01:09:49.453Z,95468.09
2017-12-12T01:12:21.823Z,95494.44
2017-12-12T01:14:52.145Z,95485.64
2017-12-12T01:17:28.757Z,95505.99
2017-12-12T01:20:02.380Z,95505.89
2017-12-12T01:22:47.591Z,95488.61
2017-12-12T01:25:24.506Z,95494.34
2017-12-12T01:27:57.141Z,95479.49
2017-12-12T01:30:29.171Z,95480.70
2017-12-12T01:33:01.361Z,95499.25
2017-12-12T01:35:33.901Z,95479.24
2017-12-12T01:38:07.151Z,95499.36
2017-12-12T01:40:39.376Z,95476.88
2017-12-12T01:43:11.819Z,95464.02
2017-12-12T01:45:43.466Z,95467.91
2017-12-12T01:48:22.886Z,95461.62
2017-12-12T01:50:56.390Z,95476.38
2017-12-12T01:53:28.239Z,95456.35
2017-12-12T01:56:00.900Z,95452.41
2017-12-12T01:58:33.835Z,95477.89
2017-12-12T02:01:04.908Z,95487.80
2017-12-12T02:03:36.907Z,95466.30
2017-12-12T02:06:10.501Z,95480.68
2017-12-12T02:08:43.248Z,95492.96
2017-12-12T02:11:16.459Z,95507.79
2017-12-12T02:13:46.870Z,95481.30
2017-12-12T02:16:19.517Z,95480.66
2017-12-12T02:18:50.370Z,95483.91
2017-12-12T02:21:22.094Z,95509.23
2017-12-12T02:23:54.502Z,95516.24
2017-12-12T02:26:26.427Z,95529.35
2017-12-12T02:28:57.320Z,95523.73
2017-12-12T02:31:27.449Z,95523.64
2017-12-12T02:34:04.536Z,95529.22
2017-12-12T02:36:36.497Z,95544.34
2017-12-12T02:39:06.496Z,95540.00
2017-12-12T02:41:37.352Z,95524.16
2017-12-12T02:44:08.309Z,95509.48
2017-12-12T02:46:44.973Z,95530.34
2017-12-12T02:49:31.736Z,95533.25
2017-12-12T02:52:03.847Z,95522.42
2017-12-12T02:54:38.830Z,95534.67
2017-12-12T02:57:10.228Z,95529.34
2017-12-12T02:59:44.049Z,95542.02
2017-12-12T03:02:49.127Z,95547.07
2017-12-12T03:05:24.411Z,95558.03
2017-12-12T03:07:56.394Z,95550.55
2017-12-12T03:10:31.342Z,95560.02
2017-12-12T03:13:27.548Z,95567.14
2017-12-12T03:15:59.338Z,95558.77
2017-12-12T03:18:47.585Z,95564.25
2017-12-12T03:21:18.832Z,95581.45
2017-12-12T03:23:55.109Z,95571.08
2017-12-12T03:26:32.016Z,95564.64
2017-12-12T03:29:04.029Z,95574.84
2017-12-12T03:31:36.515Z,95578.48
2017-12-12T03:34:11.897Z,95584.48
2017-12-12T03:36:44.264Z,95580.56
2017-12-12T03:39:18.918Z,95584.14
2017-12-12T03:41:52.942Z,95601.29
2017-12-12T03:44:26.155Z,95605.16
2017-12-12T03:47:07.708Z,95613.41
2017-12-12T03:49:40.853Z,95576.73
2017-12-12T03:52:14.850Z,95590.59
2017-12-12T03:54:47.258Z,95626.14
2017-12-12T03:57:18.468Z,95625.37
2017-12-12T04:00:10.823Z,95608.33
2017-12-12T04:02:51.975Z,95619.13
2017-12-12T04:05:26.633Z,95631.48
2017-12-12T04:07:57.531Z,95634.78
2017-12-12T04:10:28.976Z,95634.25
2017-12-12T04:12:59.373Z,95659.94
2017-12-12T04:15:31.258Z,95668.71
2017-12-12T04:18:05.210Z,95661.11
2017-12-12T04:20:35.788Z,95656.25
2017-12-12T04:23:07.452Z,95682.16
2017-12-12T04:25:40.029Z,95687.66
2017-12-12T04:28:13.485Z,95681.44
2017-12-12T04:30:50.880Z,95681.95
2017-12-12T04:33:26.027Z,95695.14
2017-12-12T04:35:58.818Z,95710.54
2017-12-12T04:38:34.976Z,95693.42
2017-12-12T04:41:05.226Z,95708.31
2017-12-12T04:43:37.007Z,95714.31
2017-12-12T04:46:08.464Z,95720.15
2017-12-12T04:48:56.107Z,95729.44
2017-12-12T04:51:25.907Z,95725.02
2017-12-12T04:53:56.733Z,95745.69
2017-12-12T04:57:29.312Z,95750.53
2017-12-12T05:00:00.197Z,95776.22
2017-12-12T05:02:32.446Z,95758.96
2017-12-12T05:05:02.688Z,95753.95
2017-12-12T05:07:33.273Z,95783.86
2017-12-12T05:10:03.604Z,95794.30
2017-12-12T05:12:38.169Z,95795.98
2017-12-12T05:15:07.953Z,95782.91
2017-12-12T05:17:38.811Z,95803.66
2017-12-12T05:20:13.206Z,95812.22
2017-12-12T05:22:50.999Z,95820.16
2017-12-12T05:25:29.330Z,95806.97
2017-12-12T05:27:59.294Z,95821.67
2017-12-12T05:30:31.486Z,95825.25
2017-12-12T05:33:22.141Z,95836.06
2017-12-12T05:35:56.907Z,95831.72
2017-12-12T05:38:49.017Z,95837.05
2017-12-12T05:41:27.998Z,95842.55
2017-12-12T05:43:59.280Z,95851.15
2017-12-12T05:46:29.942Z,95849.27
2017-12-12T05:49:14.686Z,95849.66
2017-12-12T05:51:50.712Z,95870.50
2017-12-12T05:54:34.276Z,95875.05
2017-12-12T05:57:07.853Z,95872.88
2017-12-12T06:00:01.865Z,95893.23
2017-12-12T06:02:33.952Z,95905.43
2017-12-12T06:05:05.525Z,95886.20
2017-12-12T06:07:36.739Z,95904.72
2017-12-12T06:10:13.337Z,95920.88
2017-12-12T06:12:50.349Z,95913.44
2017-12-12T06:15:22.023Z,95931.48
2017-12-12T06:17:57.407Z,95933.80
2017-12-12T06:20:33.854Z,95938.77
2017-12-12T06:23:03.939Z,95943.42
2017-12-12T06:25:51.539Z,95958.70
2017-12-12T06:28:22.431Z,95962.17
2017-12-12T06:30:55.854Z,95960.91
2017-12-12T06:33:25.511Z,95972.68
2017-12-12T06:35:59.357Z,95980.62
2017-12-12T06:38:29.926Z,95972.31
2017-12-12T06:41:06.990Z,95987.39
2017-12-12T06:43:38.199Z,96005.59
2017-12-12T07:00:53.247Z,96050.05
2017-12-12T07:03:23.929Z,96017.95
2017-12-12T07:05:55.190Z,96044.20
2017-12-12T07:08:25.789Z,96050.19
2017-12-12T07:11:00.970Z,96063.89
2017-12-12T07:13:32.508Z,96077.88
2017-12-12T07:16:06.372Z,96075.32
2017-12-12T07:18:37.708Z,96062.39
2017-12-12T07:21:09.169Z,96080.38
2017-12-12T07:23:39.106Z,96079.12
2017-12-12T07:26:11.052Z,96075.94
2017-12-12T07:28:43.298Z,96076.28
2017-12-12T07:31:13.576Z,96079.84
2017-12-12T07:33:45.951Z,96094.08
2017-12-12T07:36:17.807Z,96122.93
2017-12-12T07:38:50.818Z,96126.77
2017-12-12T07:41:22.809Z,96137.39
2017-12-12T07:43:59.937Z,96137.83
2017-12-12T07:46:31.243Z,96134.29
2017-12-12T07:49:05.410Z,96150.92
2017-12-12T07:51:56.096Z,96164.23
2017-12-12T07:54:26.020Z,96179.39
2017-12-12T07:56:57.744Z,96178.44
2017-12-12T07:59:30.578Z,96177.61
2017-12-12T08:02:01.440Z,96191.31
2017-12-12T08:04:31.778Z,96200.72
2017-12-12T08:07:02.103Z,96200.67
2017-12-12T08:09:34.339Z,96213.02
2017-12-12T08:12:04.393Z,96226.09
2017-12-12T08:14:34.902Z,96240.49
2017-12-12T08:17:06.958Z,96246.59
2017-12-12T08:22:13.865Z,96270.48
2017-12-12T08:24:46.261Z,96278.42
2017-12-12T08:27:27.218Z,96288.34
2017-12-12T08:30:00.346Z,96278.36
2017-12-12T08:35:11.282Z,96281.41
2017-12-12T08:37:43.860Z,96301.28
2017-12-12T08:40:15.817Z,96304.77
2017-12-12T08:42:49.208Z,96303.41
2017-12-12T08:45:20.523Z,96305.09
2017-12-12T08:47:52.699Z,96312.79
2017-12-12T08:50:23.563Z,96324.52
2017-12-12T08:52:55.841Z,96315.92
2017-12-12T08:55:26.131Z,96333.80
2017-12-12T08:57:56.749Z,96330.75
2017-12-12T09:03:09.298Z,96321.70
2017-12-12T09:05:39.276Z,96332.61
2017-12-12T09:08:10.341Z,96348.94
2017-12-12T09:10:40.423Z,96357.63
2017-12-12T09:13:11.439Z,96373.08
2017-12-12T09:15:42.311Z,96376.25
2017-12-12T09:18:19.863Z,96376.05
2017-12-12T09:20:49.791Z,96380.19
2017-12-12T09:23:25.824Z,96384.38
2017-12-12T09:25:56.005Z,96371.72
2017-12-12T09:28:28.876Z,96373.73
2017-12-12T09:30:59.215Z,96381.55
2017-12-12T09:33:41.800Z,96386.70
2017-12-12T09:36:13.225Z,96385.62
2017-12-12T09:38:43.348Z,96397.73
2017-12-12T09:41:13.200Z,96403.33
2017-12-12T09:43:43.748Z,96404.62
2017-12-12T09:46:15.018Z,96409.00
2017-12-12T09:48:45.021Z,96416.66
2017-12-12T09:51:15.924Z,96402.80
2017-12-12T09:53:45.974Z,96399.41
2017-12-12T09:56:15.696Z,96394.73
2017-12-12T09:58:46.291Z,96410.47
2017-12-12T10:01:17.732Z,96413.07
2017-12-12T10:03:47.374Z,96416.86
2017-12-12T10:06:17.108Z,96410.16
2017-12-12T10:08:48.485Z,96418.98
2017-12-12T10:11:18.476Z,96409.66
2017-12-12T10:13:48.831Z,96424.74
2017-12-12T10:16:18.997Z,96423.27
2017-12-12T10:18:51.008Z,96429.47
2017-12-12T10:21:23.125Z,96430.58
2017-12-12T10:23:53.344Z,96432.34
2017-12-12T10:26:24.187Z,96436.53
2017-12-12T10:28:54.712Z,96429.11
2017-12-12T10:31:27.366Z,96425.11
2017-12-12T10:33:56.864Z,96416.77
2017-12-12T10:36:27.217Z,96420.89
2017-12-12T10:38:57.804Z,96435.52
2017-12-12T10:41:27.361Z,96448.50
2017-12-12T10:43:56.858Z,96457.86
2017-12-12T10:46:29.118Z,96451.28
2017-12-12T10:49:00.863Z,96452.22
2017-12-12T10:51:34.792Z,96448.19
2017-12-12T10:54:05.998Z,96466.17
2017-12-12T10:56:38.954Z,96477.55
2017-12-12T10:59:09.472Z,96457.28
2017-12-12T11:01:41.506Z,96457.41
2017-12-12T11:04:12.684Z,96460.86
2017-12-12T11:06:44.627Z,96468.97
2017-12-12T11:09:14.534Z,96478.63
2017-12-12T11:11:47.533Z,96464.69
2017-12-12T11:14:18.696Z,96452.92
2017-12-12T11:16:52.987Z,96462.66
2017-12-12T11:19:22.976Z,96460.30
2017-12-12T11:21:53.124Z,96470.64
2017-12-12T11:24:24.445Z,96484.80
2017-12-12T11:26:55.136Z,96470.65
2017-12-12T11:29:25.104Z,96479.47
2017-12-12T11:31:54.999Z,96487.13
2017-12-12T11:34:25.163Z,96486.86
2017-12-12T11:36:55.991Z,96486.95
2017-12-12T11:39:26.900Z,96487.55
2017-12-12T11:41:58.864Z,96487.37
2017-12-12T11:44:28.766Z,96481.20
2017-12-12T11:47:00.218Z,96483.50
2017-12-12T11:49:30.030Z,96480.27
2017-12-12T11:52:00.458Z,96490.09
2017-12-12T11:54:30.488Z,96498.02
2017-12-12T11:57:01.323Z,96504.45
2017-12-12T11:59:31.041Z,96500.42
2017-12-12T12:02:01.521Z,96504.38
2017-12-12T12:04:31.506Z,96506.86
2017-12-12T12:07:04.094Z,96513.67
2017-12-12T12:09:34.513Z,96526.91
2017-12-12T12:12:05.253Z,96514.48
2017-12-12T12:14:35.195Z,96518.58
2017-12-12T12:17:05.054Z,96527.13
2017-12-12T12:19:36.228Z,96527.32
2017-12-12T12:22:07.942Z,96536.58
2017-12-12T12:24:38.002Z,96547.61
2017-12-12T12:27:08.045Z,96560.39
2017-12-12T12:29:37.856Z,96557.78
2017-12-12T12:32:08.467Z,96560.98
2017-12-12T12:34:39.447Z,96566.67
2017-12-12T12:37:09.776Z,96567.70
2017-12-12T12:39:39.467Z,96556.63
2017-12-12T12:42:09.928Z,96550.72
2017-12-12T12:44:47.254Z,96555.55
2017-12-12T12:47:23.247Z,96563.18
2017-12-12T12:50:05.749Z,96578.21
2017-12-12T12:52:35.214Z,96575.66
2017-12-12T12:55:05.420Z,96572.49
2017-12-12T12:57:35.128Z,96563.48
2017-12-12T13:00:06.571Z,96576.17
2017-12-12T13:02:39.741Z,96583.61
2017-12-12T13:05:09.480Z,96608.74
2017-12-12T13:07:40.184Z,96603.50
2017-12-12T13:10:09.852Z,96612.92
2017-12-12T13:12:40.017Z,96613.65
2017-12-12T13:15:11.920Z,96603.39
2017-12-12T13:17:42.653Z,96627.70
2017-12-12T13:20:12.531Z,96642.63
2017-12-12T13:22:43.714Z,96647.66
2017-12-12T13:25:14.027Z,96646.03
2017-12-12T13:27:44.793Z,96651.62
2017-12-12T13:30:15.267Z,96658.44
2017-12-12T13:32:45.015Z,96666.66
2017-12-12T13:35:16.535Z,96670.23
2017-12-12T13:37:46.682Z,96672.26
2017-12-12T13:40:22.225Z,96678.31
2017-12-12T13:42:53.028Z,96687.86
2017-12-12T13:45:23.366Z,96703.61
2017-12-12T13:47:53.936Z,96696.70
2017-12-12T13:50:25.763Z,96691.05
2017-12-12T13:52:55.419Z,96700.26
2017-12-12T13:55:25.355Z,96693.40
2017-12-12T13:57:56.349Z,96700.72
2017-12-12T14:00:26.487Z,96701.86
2017-12-12T14:02:56.713Z,96711.99
2017-12-12T14:05:29.078Z,96726.24
2017-12-12T14:08:04.449Z,96730.51
2017-12-12T14:10:41.513Z,96733.23
2017-12-12T14:13:14.881Z,96734.41
2017-12-12T14:15:45.875Z,96738.61
2017-12-12T14:18:17.294Z,96754.39
2017-12-12T14:20:50.712Z,96751.03
2017-12-12T14:23:25.881Z,96757.53
2017-12-12T14:25:58.846Z,96755.45
2017-12-12T14:28:33.279Z,96759.31
2017-12-12T14:31:06.321Z,96765.07
2017-12-12T14:33:38.217Z,96775.95
2017-12-12T14:36:10.927Z,96782.98
2017-12-12T14:38:41.778Z,96801.16
2017-12-12T14:41:12.103Z,96809.84
2017-12-12T14:43:45.692Z,96813.78
2017-12-12T14:46:15.994Z,96816.59
2017-12-12T14:48:47.457Z,96824.30
2017-12-12T14:51:17.409Z,96820.81
2017-12-12T14:53:47.890Z,96825.61
2017-12-12T14:56:18.416Z,96839.61
2017-12-12T14:58:49.899Z,96839.89
2017-12-12T15:01:20.663Z,96827.57
2017-12-12T15:03:51.753Z,96837.86
2017-12-12T15:06:21.824Z,96839.95
2017-12-12T15:08:52.135Z,96854.78
2017-12-12T15:11:24.032Z,96847.36
2017-12-12T15:14:01.076Z,96849.55
2017-12-12T15:16:32.009Z,96847.52
2017-12-12T15:19:01.647Z,96854.44
2017-12-12T15:21:32.758Z,96870.77
2017-12-12T15:24:03.458Z,96871.72
2017-12-12T15:26:34.890Z,96877.84
2017-12-12T15:29:08.010Z,96878.31
2017-12-12T15:31:39.396Z,96879.48
2017-12-12T15:34:11.361Z,96884.14
2017-12-12T15:36:42.695Z,96885.45
2017-12-12T15:39:15.230Z,96886.17
2017-12-12T15:41:45.677Z,96884.34
2017-12-12T15:44:15.963Z,96888.31
2017-12-12T15:46:47.196Z,96884.33
2017-12-12T15:49:18.355Z,96887.94
2017-12-12T15:51:52.576Z,96884.28
2017-12-12T15:54:23.330Z,96885.58
2017-12-12T15:56:59.761Z,96896.36
2017-12-12T15:59:35.049Z,96901.87
2017-12-12T23:44:28.037Z,97531.03
2017-12-12T23:47:02.955Z,97520.44
2017-12-12T23:49:49.489Z,97519.44
2017-12-12T23:52:23.398Z,97525.78
2017-12-12T23:54:58.126Z,97541.06
2017-12-12T23:57:27.862Z,97542.69
2017-12-12T23:59:59.877Z,97549.51
